Time;durP1;ratioP1;P1;durP2;ratioP2;P2;SDS_P1;SDS_P2;PMS_P1;PMS_P2;Temp;Humidity;BMP_temperature;BMP_pressure;BME280_temperature;BME280_humidity;BME280_pressure;Samples;Min_cycle;Max_cycle;Signal;HPM_P1;HPM_P2
2022/03/11 00:09:55;;;;;;;47.58;15.30;;;;;;;-0.45;47.78;102576.33;713810;1176;114947;-81
2022/03/11 00:24:57;;;;;;;24.13;7.85;;;;;;;-0.60;47.91;102561.77;714040;1176;116171;-79
2022/03/11 00:39:59;;;;;;;13.30;5.75;;;;;;;-0.87;47.47;102565.31;713372;1174;115127;-80
2022/03/11 00:55:04;;;;;;;40.73;11.03;;;;;;;-0.92;48.46;102570.50;714002;1176;115980;-81
2022/03/11 01:10:08;;;;;;;23.93;8.85;;;;;;;-1.09;48.71;102574.86;713215;1174;115812;-72
2022/03/11 01:25:10;;;;;;;37.40;10.13;;;;;;;-1.24;49.06;102588.61;713247;1177;116011;-70
2022/03/11 01:40:12;;;;;;;32.03;8.63;;;;;;;-1.34;48.54;102587.78;713487;1177;116179;-70
2022/03/11 01:55:15;;;;;;;21.73;7.83;;;;;;;-1.34;48.90;102572.33;713415;1175;115776;-69
2022/03/11 02:10:17;;;;;;;23.28;8.70;;;;;;;-1.43;49.34;102572.34;713743;1174;116145;-71
2022/03/11 02:25:19;;;;;;;22.33;7.73;;;;;;;-1.61;49.03;102563.79;713396;1174;114891;-70
2022/03/11 02:40:21;;;;;;;15.30;6.15;;;;;;;-1.63;48.93;102562.92;713280;1174;115797;-70
2022/03/11 02:55:23;;;;;;;20.85;7.10;;;;;;;-1.74;48.78;102567.20;713920;1175;114515;-71
2022/03/11 03:10:26;;;;;;;19.43;7.30;;;;;;;-1.73;48.93;102568.92;713422;1174;114881;-70
2022/03/11 03:25:28;;;;;;;22.23;7.65;;;;;;;-1.78;49.27;102563.80;713271;1174;114808;-70
2022/03/11 03:40:30;;;;;;;17.63;6.78;;;;;;;-1.90;49.61;102566.34;713618;1175;115901;-70
2022/03/11 03:55:32;;;;;;;16.37;5.63;;;;;;;-2.00;49.56;102573.21;713590;1174;114981;-71
2022/03/11 04:10:35;;;;;;;18.95;7.35;;;;;;;-2.10;49.84;102568.91;713999;1174;115866;-71
2022/03/11 04:25:38;;;;;;;26.17;16.73;;;;;;;-2.19;50.13;102562.02;713530;1177;114910;-70
2022/03/11 04:40:40;;;;;;;16.37;7.30;;;;;;;-2.26;50.09;102562.88;713232;1175;116224;-70
2022/03/11 04:55:42;;;;;;;17.40;6.78;;;;;;;-2.31;50.09;102574.87;713994;1176;114842;-69
2022/03/11 05:10:45;;;;;;;153.57;32.83;;;;;;;-2.34;50.54;102565.44;713705;1176;115347;-70
2022/03/11 05:25:48;;;;;;;65.30;15.70;;;;;;;-2.48;50.86;102564.53;713474;1177;116111;-70
2022/03/11 05:40:50;;;;;;;31.60;10.67;;;;;;;-2.33;50.63;102567.16;713227;1175;116155;-70
2022/03/11 05:55:52;;;;;;;21.33;7.95;;;;;;;-2.21;50.79;102577.45;713296;1174;115777;-74
2022/03/11 06:10:54;;;;;;;21.27;8.40;;;;;;;-1.85;51.15;102577.50;713541;1175;116647;-71
2022/03/11 06:25:56;;;;;;;27.67;10.33;;;;;;;-1.43;50.77;102588.64;713377;1174;115796;-70
2022/03/11 06:40:58;;;;;;;27.77;10.20;;;;;;;-0.30;50.30;102593.44;713415;1174;116197;-71
2022/03/11 06:56:01;;;;;;;15.73;7.43;;;;;;;1.04;48.71;102601.78;713393;1176;116065;-72
2022/03/11 07:11:05;;;;;;;24.87;10.67;;;;;;;2.15;47.57;102602.91;712905;1177;114778;-80
2022/03/11 07:26:07;;;;;;;15.80;7.98;;;;;;;2.94;45.67;102622.30;714498;1176;114935;-82
2022/03/11 07:41:11;;;;;;;23.23;10.10;;;;;;;4.02;44.12;102615.74;714131;1174;115096;-74
2022/03/11 07:56:15;;;;;;;82.87;32.40;;;;;;;4.46;42.05;102609.47;713445;1174;114652;-79
2022/03/11 08:11:18;;;;;;;16.13;8.97;;;;;;;4.64;40.32;102605.52;713807;1174;115624;-76
2022/03/11 08:26:21;;;;;;;17.80;12.55;;;;;;;5.27;39.56;102608.16;713767;1175;114160;-79
2022/03/11 08:41:27;;;;;;;98.45;74.85;;;;;;;5.70;38.89;102600.84;713984;1175;115073;-75
2022/03/11 08:56:29;;;;;;;23.30;11.88;;;;;;;6.43;36.71;102590.73;718674;1174;114567;-76
2022/03/11 09:11:32;;;;;;;13.13;6.28;;;;;;;6.49;35.98;102595.72;714808;1175;114247;-75
2022/03/11 09:26:35;;;;;;;15.00;6.45;;;;;;;7.10;36.89;102582.28;713735;1176;115359;-77
2022/03/11 09:41:54;;;;;;;10.47;5.83;;;;;;;8.13;36.38;102577.42;713862;1175;115716;-72
2022/03/11 09:56:58;;;;;;;8.23;4.27;;;;;;;7.78;35.27;102557.94;714185;1177;115598;-72
2022/03/11 10:12:05;;;;;;;9.97;6.70;;;;;;;8.10;34.47;102561.00;714312;1175;114773;-72
2022/03/11 10:27:09;;;;;;;44.45;13.28;;;;;;;9.10;32.65;102556.69;714535;1174;115455;-70
2022/03/11 10:42:33;;;;;;;34.95;12.95;;;;;;;9.14;32.44;102542.53;715036;1174;114938;-70
2022/03/11 10:57:38;;;;;;;88.85;20.13;;;;;;;9.80;32.15;102525.44;713889;1174;115670;-71
2022/03/11 11:12:41;;;;;;;19.15;12.75;;;;;;;9.98;31.59;102517.61;714719;1177;115663;-71
2022/03/11 11:27:45;;;;;;;18.13;7.53;;;;;;;10.26;31.34;102513.58;713849;1174;114892;-80
2022/03/11 11:43:16;;;;;;;9.88;6.10;;;;;;;11.01;30.94;102493.03;714240;1175;114765;-69
2022/03/11 11:58:23;;;;;;;43.98;19.88;;;;;;;11.40;30.79;102483.87;714536;1174;115628;-70
2022/03/11 12:13:32;;;;;;;90.05;28.95;;;;;;;11.10;31.20;102468.88;714299;1174;116043;-69
2022/03/11 12:28:41;;;;;;;15.93;7.15;;;;;;;11.65;30.74;102453.52;713794;1174;114910;-78
2022/03/11 12:43:48;;;;;;;46.13;17.95;;;;;;;11.86;30.55;102453.20;714311;1174;114786;-76
2022/03/11 12:58:51;;;;;;;19.68;8.95;;;;;;;12.31;30.55;102432.98;714104;1174;116144;-72
2022/03/11 13:14:02;;;;;;;7.20;5.23;;;;;;;12.30;29.84;102407.63;715405;1175;115846;-72
2022/03/11 13:29:07;;;;;;;114.60;38.85;;;;;;;12.70;30.69;102391.95;715238;1177;115784;-74
2022/03/11 13:44:11;;;;;;;43.67;20.23;;;;;;;14.47;30.51;102373.08;715415;1174;115584;-73
2022/03/11 13:59:14;;;;;;;51.33;25.77;;;;;;;23.37;28.38;102363.88;716605;1174;115586;-73
2022/03/11 14:14:34;;;;;;;52.93;24.83;;;;;;;25.67;27.02;102360.77;714183;1177;115317;-73
2022/03/11 14:29:36;;;;;;;43.50;24.40;;;;;;;26.28;26.26;102346.23;713861;1174;116102;-74
2022/03/11 14:44:39;;;;;;;37.45;18.95;;;;;;;25.84;25.47;102339.91;713991;1177;115495;-74
2022/03/11 14:59:41;;;;;;;23.93;18.13;;;;;;;25.15;24.92;102329.41;716138;1177;115746;-73
2022/03/11 15:14:44;;;;;;;29.85;20.80;;;;;;;25.04;25.10;102304.66;718590;1175;115695;-73
2022/03/11 15:29:46;;;;;;;15.93;8.93;;;;;;;17.24;25.41;102298.78;713799;1177;115178;-79
2022/03/11 15:44:50;;;;;;;28.33;14.48;;;;;;;12.99;27.89;102281.22;714143;1174;116072;-78
2022/03/11 15:59:52;;;;;;;82.43;29.63;;;;;;;12.31;29.40;102283.84;714172;1175;116176;-79
2022/03/11 16:15:15;;;;;;;75.90;32.63;;;;;;;16.42;28.69;102287.79;714475;1174;115875;-78
2022/03/11 16:30:17;;;;;;;97.93;39.23;;;;;;;13.05;28.71;102291.36;714384;1174;116305;-82
2022/03/11 16:45:22;;;;;;;41.25;22.25;;;;;;;8.46;30.20;102283.14;714022;1174;115387;-81
2022/03/11 17:00:25;;;;;;;61.48;39.33;;;;;;;6.68;32.94;102272.52;714043;1174;115168;-83
2022/03/11 17:15:28;;;;;;;125.80;42.10;;;;;;;5.72;35.11;102257.84;713945;1174;115700;-73
2022/03/11 17:30:31;;;;;;;24.75;9.98;;;;;;;5.13;35.83;102246.02;714398;1174;115517;-86
2022/03/11 17:45:34;;;;;;;209.25;58.13;;;;;;;4.63;37.57;102231.17;716502;1176;115392;-80
2022/03/11 18:00:42;;;;;;;468.13;169.25;;;;;;;4.26;37.02;102209.81;715926;1175;114510;-87
2022/03/11 18:15:46;;;;;;;252.70;94.43;;;;;;;3.87;39.41;102202.31;715189;1175;116245;-76
2022/03/11 18:30:49;;;;;;;374.80;129.38;;;;;;;3.40;39.64;102209.70;714356;1175;114894;-76
2022/03/11 18:45:55;;;;;;;109.90;34.90;;;;;;;3.21;39.51;102209.32;714208;1174;115516;-71
2022/03/11 19:01:01;;;;;;;194.48;60.68;;;;;;;2.96;40.25;102205.63;714389;1174;114506;-71
2022/03/11 19:16:09;;;;;;;193.43;55.77;;;;;;;2.76;40.85;102208.73;714060;1175;115127;-78
2022/03/11 19:31:17;;;;;;;199.65;56.83;;;;;;;2.63;41.55;102228.06;714936;1175;115416;-76
2022/03/11 19:46:22;;;;;;;140.13;43.28;;;;;;;2.52;41.49;102225.73;714109;1174;115221;-76
2022/03/11 20:01:26;;;;;;;293.80;75.30;;;;;;;2.11;42.77;102219.72;716208;1177;115263;-72
2022/03/11 20:16:31;;;;;;;186.43;53.33;;;;;;;1.87;43.24;102216.77;713867;1174;115638;-70
2022/03/11 20:31:37;;;;;;;268.83;74.73;;;;;;;1.59;43.04;102226.83;714260;1177;114533;-70
2022/03/11 20:46:42;;;;;;;387.03;117.03;;;;;;;1.42;43.59;102214.22;713979;1175;115913;-69
2022/03/11 21:01:45;;;;;;;678.38;230.13;;;;;;;1.25;44.00;102217.11;720182;1176;115889;-69
2022/03/11 21:16:49;;;;;;;482.83;173.23;;;;;;;1.24;44.11;102192.13;714403;1174;116239;-70
2022/03/11 21:31:52;;;;;;;97.35;33.45;;;;;;;1.14;44.65;102192.29;714080;1177;115194;-70
2022/03/11 21:46:56;;;;;;;117.00;33.20;;;;;;;0.67;45.19;102196.53;713908;1176;114550;-74
2022/03/11 22:02:03;;;;;;;76.93;25.10;;;;;;;0.45;45.96;102198.59;713457;1175;115876;-70
2022/03/11 22:17:08;;;;;;;80.77;27.57;;;;;;;0.04;46.38;102200.92;713589;1175;115768;-70
2022/03/11 22:32:10;;;;;;;147.33;41.95;;;;;;;-0.28;47.34;102201.31;713748;1174;115893;-70
2022/03/11 22:47:12;;;;;;;153.65;43.75;;;;;;;-0.41;48.38;102205.75;713384;1174;116071;-69
2022/03/11 23:17:37;;;;;;;244.15;54.88;;;;;;;-0.89;48.05;102195.95;713335;1174;115098;-68
2022/03/11 23:32:42;;;;;;;115.08;32.90;;;;;;;-0.91;48.76;102195.10;713320;1174;116085;-68
2022/03/11 23:47:45;;;;;;;106.53;29.63;;;;;;;-1.13;49.42;102192.73;713253;1174;116192;-69
